sensor_id;sensor_type;location;lat;lon;timestamp;pressure;altitude;pressure_sealevel;temperature;humidity
12868;BME280;33517;49.866;8.320;2023-05-28T00:02:37;100753.78;;;14.72;61.57
12868;BME280;33517;49.866;8.320;2023-05-28T00:05:30;100756.28;;;14.73;61.99
12868;BME280;33517;49.866;8.320;2023-05-28T00:08:22;100756.63;;;14.70;61.06
12868;BME280;33517;49.866;8.320;2023-05-28T00:11:14;100757.16;;;14.66;61.34
12868;BME280;33517;49.866;8.320;2023-05-28T00:14:06;100749.84;;;14.68;61.15
12868;BME280;33517;49.866;8.320;2023-05-28T00:16:57;100749.03;;;14.67;62.22
12868;BME280;33517;49.866;8.320;2023-05-28T00:19:49;100751.69;;;14.67;62.20
12868;BME280;33517;49.866;8.320;2023-05-28T00:22:42;100739.72;;;14.71;62.44
12868;BME280;33517;49.866;8.320;2023-05-28T00:25:35;100737.09;;;14.71;62.24
12868;BME280;33517;49.866;8.320;2023-05-28T00:28:27;100743.75;;;14.67;62.36
12868;BME280;33517;49.866;8.320;2023-05-28T00:31:19;100732.22;;;14.60;61.97
12868;BME280;33517;49.866;8.320;2023-05-28T00:34:10;100733.13;;;14.53;62.47
12868;BME280;33517;49.866;8.320;2023-05-28T00:37:02;100737.63;;;14.52;63.27
12868;BME280;33517;49.866;8.320;2023-05-28T00:39:56;100729.22;;;14.49;62.38
12868;BME280;33517;49.866;8.320;2023-05-28T00:42:48;100726.94;;;14.46;62.32
12868;BME280;33517;49.866;8.320;2023-05-28T00:45:41;100727.97;;;14.45;62.80
12868;BME280;33517;49.866;8.320;2023-05-28T00:48:33;100729.31;;;14.41;63.04
12868;BME280;33517;49.866;8.320;2023-05-28T00:51:25;100733.78;;;14.40;63.36
12868;BME280;33517;49.866;8.320;2023-05-28T00:54:18;100731.97;;;14.41;63.33
12868;BME280;33517;49.866;8.320;2023-05-28T00:57:11;100734.78;;;14.39;63.02
12868;BME280;33517;49.866;8.320;2023-05-28T01:00:03;100734.69;;;14.33;62.56
12868;BME280;33517;49.866;8.320;2023-05-28T01:02:56;100734.06;;;14.31;63.10
12868;BME280;33517;49.866;8.320;2023-05-28T01:05:48;100736.38;;;14.26;63.03
12868;BME280;33517;49.866;8.320;2023-05-28T01:08:41;100741.84;;;14.24;63.12
12868;BME280;33517;49.866;8.320;2023-05-28T01:11:34;100733.44;;;14.21;62.63
12868;BME280;33517;49.866;8.320;2023-05-28T01:14:28;100735.28;;;14.20;64.09
12868;BME280;33517;49.866;8.320;2023-05-28T01:17:21;100731.34;;;14.16;63.75
12868;BME280;33517;49.866;8.320;2023-05-28T01:20:13;100726.94;;;14.09;63.15
12868;BME280;33517;49.866;8.320;2023-05-28T01:23:08;100722.41;;;14.03;62.77
12868;BME280;33517;49.866;8.320;2023-05-28T01:26:03;100726.84;;;14.02;62.86
12868;BME280;33517;49.866;8.320;2023-05-28T01:28:55;100717.84;;;14.11;63.35
12868;BME280;33517;49.866;8.320;2023-05-28T01:31:48;100715.31;;;14.18;63.84
12868;BME280;33517;49.866;8.320;2023-05-28T01:34:40;100718.22;;;14.23;63.56
12868;BME280;33517;49.866;8.320;2023-05-28T01:37:33;100721.81;;;14.30;63.00
12868;BME280;33517;49.866;8.320;2023-05-28T01:40:27;100718.63;;;14.34;62.84
12868;BME280;33517;49.866;8.320;2023-05-28T01:43:20;100715.25;;;14.40;62.17
12868;BME280;33517;49.866;8.320;2023-05-28T01:46:12;100714.22;;;14.41;62.62
12868;BME280;33517;49.866;8.320;2023-05-28T01:49:04;100711.78;;;14.40;62.04
12868;BME280;33517;49.866;8.320;2023-05-28T01:51:56;100713.78;;;14.38;62.61
12868;BME280;33517;49.866;8.320;2023-05-28T01:54:48;100721.66;;;14.31;61.87
12868;BME280;33517;49.866;8.320;2023-05-28T01:57:40;100714.69;;;14.30;62.14
12868;BME280;33517;49.866;8.320;2023-05-28T02:00:35;100718.34;;;14.29;62.52
12868;BME280;33517;49.866;8.320;2023-05-28T02:03:30;100707.66;;;14.37;62.25
12868;BME280;33517;49.866;8.320;2023-05-28T02:06:23;100703.84;;;14.40;62.48
12868;BME280;33517;49.866;8.320;2023-05-28T02:09:15;100705.31;;;14.42;61.85
12868;BME280;33517;49.866;8.320;2023-05-28T02:12:07;100706.28;;;14.41;62.58
12868;BME280;33517;49.866;8.320;2023-05-28T02:14:59;100695.88;;;14.40;61.32
12868;BME280;33517;49.866;8.320;2023-05-28T02:17:54;100704.03;;;14.38;61.74
12868;BME280;33517;49.866;8.320;2023-05-28T02:20:47;100700.53;;;14.38;61.60
12868;BME280;33517;49.866;8.320;2023-05-28T02:23:40;100703.56;;;14.35;61.72
12868;BME280;33517;49.866;8.320;2023-05-28T02:26:32;100701.66;;;14.29;61.33
12868;BME280;33517;49.866;8.320;2023-05-28T02:29:24;100701.50;;;14.22;62.42
12868;BME280;33517;49.866;8.320;2023-05-28T02:32:16;100694.84;;;14.12;61.93
12868;BME280;33517;49.866;8.320;2023-05-28T02:35:09;100696.72;;;14.03;62.39
12868;BME280;33517;49.866;8.320;2023-05-28T02:38:01;100693.53;;;13.93;63.04
12868;BME280;33517;49.866;8.320;2023-05-28T02:40:53;100694.06;;;13.88;63.78
12868;BME280;33517;49.866;8.320;2023-05-28T02:43:45;100697.25;;;13.84;63.10
12868;BME280;33517;49.866;8.320;2023-05-28T02:46:36;100701.25;;;13.80;63.18
12868;BME280;33517;49.866;8.320;2023-05-28T02:49:28;100693.22;;;13.73;63.23
12868;BME280;33517;49.866;8.320;2023-05-28T02:52:22;100695.94;;;13.65;63.03
12868;BME280;33517;49.866;8.320;2023-05-28T02:55:13;100699.91;;;13.61;63.83
12868;BME280;33517;49.866;8.320;2023-05-28T02:58:05;100690.41;;;13.52;64.30
12868;BME280;33517;49.866;8.320;2023-05-28T03:00:57;100700.69;;;13.47;63.62
12868;BME280;33517;49.866;8.320;2023-05-28T03:03:49;100705.22;;;13.39;63.55
12868;BME280;33517;49.866;8.320;2023-05-28T03:06:41;100708.28;;;13.28;63.71
12868;BME280;33517;49.866;8.320;2023-05-28T03:09:35;100704.84;;;13.19;62.98
12868;BME280;33517;49.866;8.320;2023-05-28T03:12:27;100710.34;;;13.10;63.98
12868;BME280;33517;49.866;8.320;2023-05-28T03:15:19;100711.88;;;13.04;63.94
12868;BME280;33517;49.866;8.320;2023-05-28T03:18:11;100709.41;;;12.94;64.90
12868;BME280;33517;49.866;8.320;2023-05-28T03:21:03;100715.75;;;12.85;64.66
12868;BME280;33517;49.866;8.320;2023-05-28T03:23:55;100716.78;;;12.76;64.40
12868;BME280;33517;49.866;8.320;2023-05-28T03:26:48;100717.09;;;12.73;64.86
12868;BME280;33517;49.866;8.320;2023-05-28T03:29:40;100711.84;;;12.65;65.50
12868;BME280;33517;49.866;8.320;2023-05-28T03:32:32;100711.06;;;12.57;65.48
12868;BME280;33517;49.866;8.320;2023-05-28T03:35:24;100719.00;;;12.49;64.93
12868;BME280;33517;49.866;8.320;2023-05-28T03:38:16;100715.41;;;12.42;65.58
12868;BME280;33517;49.866;8.320;2023-05-28T03:41:07;100717.88;;;12.35;65.10
12868;BME280;33517;49.866;8.320;2023-05-28T03:44:01;100714.28;;;12.28;65.32
12868;BME280;33517;49.866;8.320;2023-05-28T03:46:53;100712.97;;;12.24;65.81
12868;BME280;33517;49.866;8.320;2023-05-28T03:49:44;100717.59;;;12.22;66.59
12868;BME280;33517;49.866;8.320;2023-05-28T03:52:36;100716.94;;;12.20;65.91
12868;BME280;33517;49.866;8.320;2023-05-28T03:55:28;100718.91;;;12.18;66.39
12868;BME280;33517;49.866;8.320;2023-05-28T03:58:20;100716.47;;;12.17;66.35
12868;BME280;33517;49.866;8.320;2023-05-28T04:01:13;100710.34;;;12.16;66.58
12868;BME280;33517;49.866;8.320;2023-05-28T04:04:05;100712.81;;;12.18;66.07
12868;BME280;33517;49.866;8.320;2023-05-28T04:06:57;100713.47;;;12.20;66.11
12868;BME280;33517;49.866;8.320;2023-05-28T04:09:49;100706.03;;;12.23;66.55
12868;BME280;33517;49.866;8.320;2023-05-28T04:12:41;100713.94;;;12.31;67.01
12868;BME280;33517;49.866;8.320;2023-05-28T04:15:33;100713.09;;;12.39;66.56
12868;BME280;33517;49.866;8.320;2023-05-28T04:18:26;100710.25;;;12.48;66.23
12868;BME280;33517;49.866;8.320;2023-05-28T04:21:21;100710.91;;;12.58;66.96
12868;BME280;33517;49.866;8.320;2023-05-28T04:24:13;100703.59;;;12.68;67.27
12868;BME280;33517;49.866;8.320;2023-05-28T04:27:05;100705.84;;;12.79;67.27
12868;BME280;33517;49.866;8.320;2023-05-28T04:29:57;100710.25;;;12.95;68.52
12868;BME280;33517;49.866;8.320;2023-05-28T04:32:48;100709.38;;;13.11;68.83
12868;BME280;33517;49.866;8.320;2023-05-28T04:35:43;100715.00;;;13.30;67.52
12868;BME280;33517;49.866;8.320;2023-05-28T04:38:34;100717.19;;;13.49;68.75
12868;BME280;33517;49.866;8.320;2023-05-28T04:41:26;100715.72;;;13.69;68.07
12868;BME280;33517;49.866;8.320;2023-05-28T04:44:18;100719.25;;;13.84;68.06
12868;BME280;33517;49.866;8.320;2023-05-28T04:47:10;100724.41;;;14.01;67.89
12868;BME280;33517;49.866;8.320;2023-05-28T04:50:03;100728.88;;;14.15;67.02
12868;BME280;33517;49.866;8.320;2023-05-28T04:52:56;100722.00;;;14.28;67.25
12868;BME280;33517;49.866;8.320;2023-05-28T04:55:48;100733.78;;;14.40;66.33
12868;BME280;33517;49.866;8.320;2023-05-28T04:58:40;100725.84;;;14.55;65.40
12868;BME280;33517;49.866;8.320;2023-05-28T05:01:32;100724.19;;;14.68;65.28
12868;BME280;33517;49.866;8.320;2023-05-28T05:04:24;100722.72;;;14.81;65.25
12868;BME280;33517;49.866;8.320;2023-05-28T05:07:16;100718.97;;;14.90;64.72
12868;BME280;33517;49.866;8.320;2023-05-28T05:10:10;100727.06;;;15.03;64.60
12868;BME280;33517;49.866;8.320;2023-05-28T05:13:02;100732.69;;;15.14;63.56
12868;BME280;33517;49.866;8.320;2023-05-28T05:15:54;100726.91;;;15.25;63.58
12868;BME280;33517;49.866;8.320;2023-05-28T05:18:46;100726.25;;;15.38;62.90
12868;BME280;33517;49.866;8.320;2023-05-28T05:21:38;100721.50;;;15.48;62.41
12868;BME280;33517;49.866;8.320;2023-05-28T05:24:30;100734.25;;;15.59;62.50
12868;BME280;33517;49.866;8.320;2023-05-28T05:27:23;100730.25;;;15.69;62.43
12868;BME280;33517;49.866;8.320;2023-05-28T05:30:15;100731.94;;;15.77;61.81
12868;BME280;33517;49.866;8.320;2023-05-28T05:33:07;100730.00;;;15.86;61.29
12868;BME280;33517;49.866;8.320;2023-05-28T05:36:00;100726.63;;;15.98;61.26
12868;BME280;33517;49.866;8.320;2023-05-28T05:38:52;100728.38;;;16.12;60.76
12868;BME280;33517;49.866;8.320;2023-05-28T05:41:44;100724.38;;;16.23;60.68
12868;BME280;33517;49.866;8.320;2023-05-28T05:44:37;100729.53;;;16.31;59.77
12868;BME280;33517;49.866;8.320;2023-05-28T05:47:29;100728.22;;;16.48;59.28
12868;BME280;33517;49.866;8.320;2023-05-28T05:50:21;100730.78;;;16.63;59.08
12868;BME280;33517;49.866;8.320;2023-05-28T05:53:13;100725.31;;;16.77;58.51
12868;BME280;33517;49.866;8.320;2023-05-28T05:56:05;100730.28;;;16.87;58.56
12868;BME280;33517;49.866;8.320;2023-05-28T05:58:57;100727.03;;;16.98;57.82
12868;BME280;33517;49.866;8.320;2023-05-28T06:01:51;100720.75;;;17.12;58.35
12868;BME280;33517;49.866;8.320;2023-05-28T06:04:43;100724.91;;;17.27;57.48
12868;BME280;33517;49.866;8.320;2023-05-28T06:07:35;100723.38;;;17.53;57.89
12868;BME280;33517;49.866;8.320;2023-05-28T06:10:27;100732.19;;;17.79;57.07
12868;BME280;33517;49.866;8.320;2023-05-28T06:13:19;100728.50;;;18.13;56.21
12868;BME280;33517;49.866;8.320;2023-05-28T06:16:11;100729.84;;;19.87;53.75
12868;BME280;33517;49.866;8.320;2023-05-28T06:19:04;100730.44;;;23.37;45.55
12868;BME280;33517;49.866;8.320;2023-05-28T06:21:57;100743.91;;;25.62;40.99
12868;BME280;33517;49.866;8.320;2023-05-28T06:24:49;100751.97;;;27.13;38.55
12868;BME280;33517;49.866;8.320;2023-05-28T06:27:42;100755.63;;;28.40;36.76
12868;BME280;33517;49.866;8.320;2023-05-28T06:30:35;100756.81;;;28.97;34.52
12868;BME280;33517;49.866;8.320;2023-05-28T06:33:27;100762.94;;;29.28;34.17
12868;BME280;33517;49.866;8.320;2023-05-28T06:36:20;100751.44;;;29.46;33.01
12868;BME280;33517;49.866;8.320;2023-05-28T06:39:13;100750.47;;;30.05;32.89
12868;BME280;33517;49.866;8.320;2023-05-28T06:42:05;100743.97;;;30.34;32.13
12868;BME280;33517;49.866;8.320;2023-05-28T06:44:57;100751.81;;;31.07;31.69
12868;BME280;33517;49.866;8.320;2023-05-28T06:47:49;100748.22;;;31.53;30.15
12868;BME280;33517;49.866;8.320;2023-05-28T06:50:41;100746.91;;;31.83;29.67
12868;BME280;33517;49.866;8.320;2023-05-28T06:53:35;100742.59;;;32.14;29.03
12868;BME280;33517;49.866;8.320;2023-05-28T06:56:28;100738.28;;;32.27;28.90
12868;BME280;33517;49.866;8.320;2023-05-28T06:59:19;100737.53;;;32.67;27.90
12868;BME280;33517;49.866;8.320;2023-05-28T07:05:58;100741.34;;;34.00;26.68
12868;BME280;33517;49.866;8.320;2023-05-28T07:08:51;100733.47;;;33.99;26.44
12868;BME280;33517;49.866;8.320;2023-05-28T07:11:43;100734.00;;;33.65;25.61
12868;BME280;33517;49.866;8.320;2023-05-28T07:14:36;100733.56;;;34.16;25.53
12868;BME280;33517;49.866;8.320;2023-05-28T07:17:28;100742.03;;;33.84;25.32
12868;BME280;33517;49.866;8.320;2023-05-28T07:20:20;100731.84;;;33.54;25.37
12868;BME280;33517;49.866;8.320;2023-05-28T07:23:12;100738.25;;;33.49;25.38
12868;BME280;33517;49.866;8.320;2023-05-28T07:26:05;100730.25;;;33.97;24.91
12868;BME280;33517;49.866;8.320;2023-05-28T07:28:57;100732.22;;;34.05;24.74
12868;BME280;33517;49.866;8.320;2023-05-28T07:31:49;100735.72;;;34.67;24.38
12868;BME280;33517;49.866;8.320;2023-05-28T07:34:41;100732.84;;;35.54;23.76
12868;BME280;33517;49.866;8.320;2023-05-28T07:37:33;100742.16;;;35.70;22.37
12868;BME280;33517;49.866;8.320;2023-05-28T07:40:24;100743.16;;;35.57;22.53
12868;BME280;33517;49.866;8.320;2023-05-28T07:43:18;100736.06;;;35.47;22.59
12868;BME280;33517;49.866;8.320;2023-05-28T07:46:09;100746.84;;;35.95;21.77
12868;BME280;33517;49.866;8.320;2023-05-28T07:49:01;100741.88;;;36.35;22.16
12868;BME280;33517;49.866;8.320;2023-05-28T07:51:53;100747.69;;;37.29;21.62
12868;BME280;33517;49.866;8.320;2023-05-28T07:54:45;100750.31;;;38.00;21.45
12868;BME280;33517;49.866;8.320;2023-05-28T07:57:37;100743.59;;;37.76;21.37
12868;BME280;33517;49.866;8.320;2023-05-28T08:00:30;100751.91;;;38.33;20.22
12868;BME280;33517;49.866;8.320;2023-05-28T08:03:22;100754.66;;;38.57;20.99
12868;BME280;33517;49.866;8.320;2023-05-28T08:06:14;100746.34;;;38.66;20.21
12868;BME280;33517;49.866;8.320;2023-05-28T08:09:06;100734.72;;;38.97;20.03
12868;BME280;33517;49.866;8.320;2023-05-28T08:11:59;100740.59;;;38.02;19.08
12868;BME280;33517;49.866;8.320;2023-05-28T08:14:52;100729.66;;;37.81;19.90
12868;BME280;33517;49.866;8.320;2023-05-28T08:17:45;100732.28;;;38.23;20.37
12868;BME280;33517;49.866;8.320;2023-05-28T08:20:37;100730.69;;;38.46;19.74
12868;BME280;33517;49.866;8.320;2023-05-28T08:23:29;100731.63;;;37.60;20.36
12868;BME280;33517;49.866;8.320;2023-05-28T08:26:25;100719.09;;;37.51;19.49
12868;BME280;33517;49.866;8.320;2023-05-28T08:29:17;100720.63;;;38.74;19.81
12868;BME280;33517;49.866;8.320;2023-05-28T08:32:09;100720.28;;;38.63;19.56
12868;BME280;33517;49.866;8.320;2023-05-28T08:35:02;100717.69;;;39.58;19.35
12868;BME280;33517;49.866;8.320;2023-05-28T08:37:54;100715.97;;;39.14;19.07
12868;BME280;33517;49.866;8.320;2023-05-28T08:40:49;100710.03;;;39.00;18.69
12868;BME280;33517;49.866;8.320;2023-05-28T08:43:42;100714.06;;;39.42;18.67
12868;BME280;33517;49.866;8.320;2023-05-28T08:46:34;100700.56;;;38.61;18.99
12868;BME280;33517;49.866;8.320;2023-05-28T08:49:30;100698.75;;;38.78;18.72
12868;BME280;33517;49.866;8.320;2023-05-28T08:52:24;100704.44;;;38.97;18.24
12868;BME280;33517;49.866;8.320;2023-05-28T08:55:17;100690.25;;;39.22;19.03
12868;BME280;33517;49.866;8.320;2023-05-28T08:58:09;100689.16;;;40.25;18.64
12868;BME280;33517;49.866;8.320;2023-05-28T09:01:03;100700.53;;;40.08;17.61
12868;BME280;33517;49.866;8.320;2023-05-28T09:03:56;100688.97;;;40.03;17.98
12868;BME280;33517;49.866;8.320;2023-05-28T09:06:49;100690.69;;;40.89;17.56
12868;BME280;33517;49.866;8.320;2023-05-28T09:09:43;100694.28;;;41.08;17.29
12868;BME280;33517;49.866;8.320;2023-05-28T09:12:36;100684.69;;;41.41;17.04
12868;BME280;33517;49.866;8.320;2023-05-28T09:15:31;100691.50;;;42.07;16.41
12868;BME280;33517;49.866;8.320;2023-05-28T09:18:24;100685.34;;;41.72;17.41
12868;BME280;33517;49.866;8.320;2023-05-28T09:21:16;100686.22;;;42.22;16.52
12868;BME280;33517;49.866;8.320;2023-05-28T09:24:09;100690.53;;;42.68;16.94
12868;BME280;33517;49.866;8.320;2023-05-28T09:27:03;100688.28;;;42.28;16.55
12868;BME280;33517;49.866;8.320;2023-05-28T09:30:02;100685.50;;;42.28;16.24
12868;BME280;33517;49.866;8.320;2023-05-28T09:32:56;100685.22;;;41.88;16.42
12868;BME280;33517;49.866;8.320;2023-05-28T09:35:58;100685.41;;;41.57;16.89
12868;BME280;33517;49.866;8.320;2023-05-28T09:38:50;100682.72;;;42.02;17.34
12868;BME280;33517;49.866;8.320;2023-05-28T09:41:42;100688.09;;;41.95;16.06
12868;BME280;33517;49.866;8.320;2023-05-28T09:44:37;100684.19;;;40.00;17.43
12868;BME280;33517;49.866;8.320;2023-05-28T09:47:29;100672.25;;;40.42;17.21
12868;BME280;33517;49.866;8.320;2023-05-28T09:50:21;100676.41;;;40.52;17.96
12868;BME280;33517;49.866;8.320;2023-05-28T09:53:14;100669.97;;;41.56;17.01
12868;BME280;33517;49.866;8.320;2023-05-28T09:56:07;100678.41;;;42.53;15.85
12868;BME280;33517;49.866;8.320;2023-05-28T09:59:00;100674.09;;;42.30;16.27
12868;BME280;33517;49.866;8.320;2023-05-28T10:01:56;100667.78;;;42.55;16.10
12868;BME280;33517;49.866;8.320;2023-05-28T10:04:52;100667.84;;;41.46;16.05
12868;BME280;33517;49.866;8.320;2023-05-28T10:07:45;100665.69;;;41.01;16.88
12868;BME280;33517;49.866;8.320;2023-05-28T10:10:41;100666.19;;;42.54;15.47
12868;BME280;33517;49.866;8.320;2023-05-28T10:13:34;100673.63;;;43.69;15.34
12868;BME280;33517;49.866;8.320;2023-05-28T10:16:26;100674.00;;;44.08;15.29
12868;BME280;33517;49.866;8.320;2023-05-28T10:19:20;100672.47;;;43.37;15.71
12868;BME280;33517;49.866;8.320;2023-05-28T10:22:12;100679.94;;;43.33;15.35
12868;BME280;33517;49.866;8.320;2023-05-28T10:25:06;100663.97;;;43.23;15.44
12868;BME280;33517;49.866;8.320;2023-05-28T10:28:00;100661.94;;;42.60;15.21
12868;BME280;33517;49.866;8.320;2023-05-28T10:31:01;100660.38;;;43.55;15.03
12868;BME280;33517;49.866;8.320;2023-05-28T10:33:54;100661.78;;;43.09;14.59
12868;BME280;33517;49.866;8.320;2023-05-28T10:36:53;100661.69;;;44.05;15.05
12868;BME280;33517;49.866;8.320;2023-05-28T10:39:45;100671.66;;;44.13;14.08
12868;BME280;33517;49.866;8.320;2023-05-28T10:42:40;100657.78;;;43.36;13.68
12868;BME280;33517;49.866;8.320;2023-05-28T10:45:34;100657.63;;;43.59;13.42
12868;BME280;33517;49.866;8.320;2023-05-28T10:48:29;100656.25;;;43.39;12.67
12868;BME280;33517;49.866;8.320;2023-05-28T10:51:21;100650.03;;;42.86;14.08
12868;BME280;33517;49.866;8.320;2023-05-28T10:54:21;100645.03;;;43.28;13.68
12868;BME280;33517;49.866;8.320;2023-05-28T10:57:15;100645.09;;;42.46;14.28
12868;BME280;33517;49.866;8.320;2023-05-28T11:00:08;100643.47;;;43.01;14.16
12868;BME280;33517;49.866;8.320;2023-05-28T11:03:03;100644.69;;;43.70;13.85
12868;BME280;33517;49.866;8.320;2023-05-28T11:05:56;100637.94;;;43.01;14.83
12868;BME280;33517;49.866;8.320;2023-05-28T11:08:49;100635.34;;;43.88;13.85
12868;BME280;33517;49.866;8.320;2023-05-28T11:11:43;100630.47;;;43.71;14.11
12868;BME280;33517;49.866;8.320;2023-05-28T11:14:36;100628.34;;;42.91;14.52
12868;BME280;33517;49.866;8.320;2023-05-28T11:17:28;100630.47;;;43.35;14.04
12868;BME280;33517;49.866;8.320;2023-05-28T11:20:21;100626.59;;;44.34;13.78
12868;BME280;33517;49.866;8.320;2023-05-28T11:23:15;100630.31;;;44.55;13.54
12868;BME280;33517;49.866;8.320;2023-05-28T11:26:21;100630.47;;;44.22;13.39
12868;BME280;33517;49.866;8.320;2023-05-28T11:29:15;100629.19;;;44.09;13.49
12868;BME280;33517;49.866;8.320;2023-05-28T11:32:07;100627.56;;;44.05;13.29
12868;BME280;33517;49.866;8.320;2023-05-28T11:34:59;100614.31;;;44.35;13.33
12868;BME280;33517;49.866;8.320;2023-05-28T11:37:51;100610.06;;;44.51;12.94
12868;BME280;33517;49.866;8.320;2023-05-28T11:40:43;100615.31;;;43.25;13.41
12868;BME280;33517;49.866;8.320;2023-05-28T11:43:35;100614.19;;;43.00;13.95
12868;BME280;33517;49.866;8.320;2023-05-28T11:46:28;100618.63;;;43.81;13.29
12868;BME280;33517;49.866;8.320;2023-05-28T11:49:22;100607.75;;;44.67;13.09
12868;BME280;33517;49.866;8.320;2023-05-28T11:52:14;100610.22;;;44.76;12.64
12868;BME280;33517;49.866;8.320;2023-05-28T11:55:08;100602.69;;;44.77;12.79
12868;BME280;33517;49.866;8.320;2023-05-28T11:58:00;100592.59;;;44.51;13.11
12868;BME280;33517;49.866;8.320;2023-05-28T12:00:55;100601.41;;;43.22;13.32
12868;BME280;33517;49.866;8.320;2023-05-28T12:03:48;100601.50;;;43.69;13.44
12868;BME280;33517;49.866;8.320;2023-05-28T12:06:50;100599.28;;;43.12;12.95
12868;BME280;33517;49.866;8.320;2023-05-28T12:09:42;100590.28;;;42.85;13.58
12868;BME280;33517;49.866;8.320;2023-05-28T12:12:34;100595.50;;;44.11;13.24
12868;BME280;33517;49.866;8.320;2023-05-28T12:15:27;100598.22;;;44.65;12.68
12868;BME280;33517;49.866;8.320;2023-05-28T12:18:20;100589.25;;;43.00;12.99
12868;BME280;33517;49.866;8.320;2023-05-28T12:21:14;100583.28;;;42.39;13.95
12868;BME280;33517;49.866;8.320;2023-05-28T12:24:12;100588.09;;;41.93;13.92
12868;BME280;33517;49.866;8.320;2023-05-28T12:27:05;100588.19;;;40.56;14.38
12868;BME280;33517;49.866;8.320;2023-05-28T12:29:58;100582.56;;;38.72;14.82
12868;BME280;33517;49.866;8.320;2023-05-28T12:32:51;100593.31;;;38.89;15.25
12868;BME280;33517;49.866;8.320;2023-05-28T12:35:43;100574.06;;;37.32;16.50
12868;BME280;33517;49.866;8.320;2023-05-28T12:38:39;100568.81;;;35.69;17.11
12868;BME280;33517;49.866;8.320;2023-05-28T12:41:31;100569.16;;;33.83;18.84
12868;BME280;33517;49.866;8.320;2023-05-28T12:44:23;100566.09;;;32.38;19.47
12868;BME280;33517;49.866;8.320;2023-05-28T12:47:17;100560.97;;;31.55;20.65
12868;BME280;33517;49.866;8.320;2023-05-28T12:50:09;100555.78;;;30.71;21.43
12868;BME280;33517;49.866;8.320;2023-05-28T12:53:04;100555.34;;;30.22;21.75
12868;BME280;33517;49.866;8.320;2023-05-28T12:56:00;100557.47;;;30.01;22.33
12868;BME280;33517;49.866;8.320;2023-05-28T12:58:54;100559.09;;;29.78;22.39
12868;BME280;33517;49.866;8.320;2023-05-28T13:01:47;100548.81;;;29.75;23.02
12868;BME280;33517;49.866;8.320;2023-05-28T13:04:39;100548.25;;;29.50;23.33
12868;BME280;33517;49.866;8.320;2023-05-28T13:07:32;100546.41;;;29.17;23.50
12868;BME280;33517;49.866;8.320;2023-05-28T13:10:26;100542.28;;;28.85;23.48
12868;BME280;33517;49.866;8.320;2023-05-28T13:13:20;100535.06;;;28.71;23.56
12868;BME280;33517;49.866;8.320;2023-05-28T13:16:12;100537.38;;;28.87;23.73
12868;BME280;33517;49.866;8.320;2023-05-28T13:19:04;100534.84;;;28.62;24.44
12868;BME280;33517;49.866;8.320;2023-05-28T13:21:56;100532.00;;;28.34;24.38
12868;BME280;33517;49.866;8.320;2023-05-28T13:24:50;100539.78;;;28.45;25.12
12868;BME280;33517;49.866;8.320;2023-05-28T13:27:42;100528.19;;;28.40;24.43
12868;BME280;33517;49.866;8.320;2023-05-28T13:30:35;100528.13;;;28.45;23.86
12868;BME280;33517;49.866;8.320;2023-05-28T13:33:27;100525.72;;;28.43;23.92
12868;BME280;33517;49.866;8.320;2023-05-28T13:36:19;100527.31;;;28.44;24.32
12868;BME280;33517;49.866;8.320;2023-05-28T13:39:11;100522.06;;;28.14;24.10
12868;BME280;33517;49.866;8.320;2023-05-28T13:42:03;100518.91;;;27.87;24.61
12868;BME280;33517;49.866;8.320;2023-05-28T13:44:56;100522.16;;;27.94;24.58
12868;BME280;33517;49.866;8.320;2023-05-28T13:47:49;100517.25;;;28.01;24.67
12868;BME280;33517;49.866;8.320;2023-05-28T13:50:41;100524.03;;;28.03;25.06
12868;BME280;33517;49.866;8.320;2023-05-28T13:53:34;100515.50;;;28.25;24.60
12868;BME280;33517;49.866;8.320;2023-05-28T13:56:26;100511.50;;;28.23;24.49
12868;BME280;33517;49.866;8.320;2023-05-28T13:59:18;100507.78;;;28.03;24.69
12868;BME280;33517;49.866;8.320;2023-05-28T14:02:09;100499.16;;;27.91;25.09
12868;BME280;33517;49.866;8.320;2023-05-28T14:05:03;100494.00;;;28.00;25.03
12868;BME280;33517;49.866;8.320;2023-05-28T14:07:55;100493.47;;;27.88;25.25
12868;BME280;33517;49.866;8.320;2023-05-28T14:10:47;100497.53;;;27.90;25.67
12868;BME280;33517;49.866;8.320;2023-05-28T14:13:40;100498.88;;;27.88;25.38
12868;BME280;33517;49.866;8.320;2023-05-28T14:16:31;100493.53;;;27.73;25.54
12868;BME280;33517;49.866;8.320;2023-05-28T14:19:23;100493.81;;;27.71;25.41
12868;BME280;33517;49.866;8.320;2023-05-28T14:22:16;100491.13;;;27.71;25.33
12868;BME280;33517;49.866;8.320;2023-05-28T14:25:08;100493.78;;;27.76;25.22
12868;BME280;33517;49.866;8.320;2023-05-28T14:28:00;100491.03;;;27.91;25.43
12868;BME280;33517;49.866;8.320;2023-05-28T14:30:53;100486.22;;;27.73;25.30
12868;BME280;33517;49.866;8.320;2023-05-28T14:33:45;100494.88;;;27.80;25.48
12868;BME280;33517;49.866;8.320;2023-05-28T14:36:37;100495.41;;;27.82;25.32
12868;BME280;33517;49.866;8.320;2023-05-28T14:39:30;100490.22;;;27.91;25.43
12868;BME280;33517;49.866;8.320;2023-05-28T14:42:22;100479.47;;;27.71;25.84
12868;BME280;33517;49.866;8.320;2023-05-28T14:45:13;100476.53;;;27.67;25.68
12868;BME280;33517;49.866;8.320;2023-05-28T14:48:06;100471.41;;;27.56;25.13
12868;BME280;33517;49.866;8.320;2023-05-28T14:50:58;100471.72;;;27.44;25.82
12868;BME280;33517;49.866;8.320;2023-05-28T14:53:49;100474.13;;;27.51;25.34
12868;BME280;33517;49.866;8.320;2023-05-28T14:56:42;100469.25;;;27.53;25.56
12868;BME280;33517;49.866;8.320;2023-05-28T14:59:34;100462.19;;;27.67;25.81
12868;BME280;33517;49.866;8.320;2023-05-28T15:02:26;100463.78;;;27.73;25.04
12868;BME280;33517;49.866;8.320;2023-05-28T15:05:18;100459.91;;;27.89;25.27
12868;BME280;33517;49.866;8.320;2023-05-28T15:08:10;100462.09;;;27.87;25.63